Weather History for KFOA - March, 2014

Change the Weather History Date:

Friday, March 21, 2014

  Actual Average (KEVV) Record (KEVV)
Temperature  
Mean Temperature 56 °F 48 °F  
Max Temperature 70 °F 59 °F 83 °F (2012)
Min Temperature 41 °F 37 °F 21 °F (1986)
Degree Days  
Heating Degree Days 10 17  
Month to date heating degree days 434  
Since 1 July heating degree days 4008  
Cooling Degree Days 0 0  
Month to date cooling degree days 0  
Year to date cooling degree days 0  
Growing Degree Days 6 (Base 50)    
Moisture  
Dew Point 33 °F    
Average Humidity 45    
Maximum Humidity 68    
Minimum Humidity 25    
Precipitation  
Precipitation 0.00 in 0.15 in 1.68 in (1952)
Month to date precipitation 2.76  
Year to date precipitation 9.03  
Snow  
Snow 0.00 in 0.00 in 1.90 in (1984)
Month to date snowfall 0.8  
Since 1 July snowfall 11.5  
Snow Depth -    
Sea Level Pressure  
Sea Level Pressure 29.91 in    
Wind  
Wind Speed 12 mph (SSW)    
Max Wind Speed 24 mph    
Max Gust Speed 31 mph    
Visibility 10 miles    
Events      
T = Trace of Precipitation, MM = Missing Value Source: NWS Daily Summary

Daily Weather History Graph

Daily Weather History Graph

Search for Another Location

Airport or City:

Trip Planner

Search our weather history database for the weather conditions in past years. The results will help you decide how hot, cold, wet, or windy it might be!

Date:

Astronomy

Mar. 21, 2014 Rise Set
Actual Time 6:55 AM CDT 7:06 PM CDT
Civil Twilight 6:29 AM CDT 7:33 PM CDT
Nautical Twilight 5:58 AM CDT 8:04 PM CDT
Astronomical Twilight 5:26 AM CDT 8:35 PM CDT
Moon No Moon Rise 9:50 AM CDT (3/21)
Length of Visible Light 13h 04m
Length of Day
12h 11m
Waning Gibbous, 75% of the Moon is Illuminated
Mar 21
Waning Gibbous
Mar 23
Last Quarter
Mar 30
New
Apr 7
First Quarter
Apr 15
Full

Hourly Weather History & Observations

Time (CDT) Temp. Windchill Dew Point Humidity Pressure Visibility Wind Dir Wind Speed Gust Speed Precip Events Conditions
12:00 AM 46.6 °F - 32.4 °F 58% 29.99 in 10.0 mi South 10.4 mph - N/A   Clear
12:15 AM 46.6 °F - 32.2 °F 57% 29.99 in 10.0 mi South 11.5 mph - N/A   Clear
12:35 AM 45.9 °F 41.2 °F 32.0 °F 58% 29.98 in 10.0 mi South 9.2 mph - N/A   Clear
12:55 AM 45.0 °F 40.1 °F 32.2 °F 61% 29.98 in 10.0 mi South 9.2 mph - N/A   Clear
1:20 AM 46.0 °F 41.4 °F 32.2 °F 58% 29.98 in 10.0 mi South 9.2 mph - N/A   Clear
1:40 AM 47.5 °F - 32.9 °F 57% 29.98 in 10.0 mi SSW 10.4 mph - N/A   Clear
2:00 AM 46.4 °F 41.1 °F 32.5 °F 59% 29.98 in 10.0 mi SSW 11.5 mph 17.3 mph N/A   Clear
2:20 AM 45.9 °F 40.8 °F 32.5 °F 60% 29.98 in 10.0 mi SSW 10.4 mph - N/A   Clear
2:35 AM 45.1 °F 40.3 °F 32.7 °F 62% 29.98 in 10.0 mi SSW 9.2 mph - N/A   Clear
2:55 AM 44.6 °F 39.7 °F 32.5 °F 63% 29.97 in 10.0 mi SSW 9.2 mph - N/A   Clear
3:15 AM 45.3 °F 40.1 °F 32.2 °F 60% 29.96 in 10.0 mi SSW 10.4 mph 16.1 mph N/A   Clear
3:35 AM 45.3 °F 40.1 °F 32.0 °F 60% 29.96 in 10.0 mi SSW 10.4 mph - N/A   Clear
3:55 AM 44.4 °F 39.5 °F 32.0 °F 62% 29.95 in 10.0 mi SSW 9.2 mph - N/A   Clear
4:15 AM 44.4 °F 39.5 °F 32.0 °F 62% 29.95 in 10.0 mi SSW 9.2 mph - N/A   Clear
4:35 AM 44.2 °F 39.7 °F 32.0 °F 62% 29.95 in 10.0 mi SSW 8.1 mph - N/A   Clear
4:55 AM 43.7 °F 39.1 °F 32.0 °F 63% 29.95 in 10.0 mi SSW 8.1 mph - N/A   Clear
5:15 AM 43.7 °F 38.6 °F 32.0 °F 63% 29.94 in 10.0 mi SSW 9.2 mph - N/A   Clear
5:35 AM 43.9 °F 39.3 °F 32.4 °F 64% 29.95 in 10.0 mi SSW 8.1 mph - N/A   Clear
5:55 AM 43.5 °F 38.9 °F 32.4 °F 65% 29.95 in 10.0 mi SSW 8.1 mph - N/A   Clear
6:15 AM 43.5 °F 39.4 °F 32.0 °F 64% 29.94 in 10.0 mi SSW 6.9 mph - N/A   Clear
6:35 AM 41.9 °F 38.2 °F 32.0 °F 68% 29.95 in 10.0 mi SSW 5.8 mph - N/A   Clear
6:55 AM 41.7 °F 36.7 °F 32.0 °F 68% 29.95 in 10.0 mi South 8.1 mph - N/A   Clear
7:15 AM 42.1 °F 37.1 °F 32.0 °F 67% 29.95 in 10.0 mi SSW 8.1 mph - N/A   Clear
7:35 AM 43.3 °F 38.6 °F 32.4 °F 65% 29.95 in 10.0 mi South 8.1 mph - N/A   Clear
7:55 AM 45.9 °F 41.2 °F 32.5 °F 60% 29.95 in 10.0 mi SSW 9.2 mph - N/A   Clear
8:15 AM 48.2 °F - 32.9 °F 55% 29.95 in 10.0 mi SSW 9.2 mph - N/A   Clear
8:35 AM 50.0 °F - 32.4 °F 51% 29.95 in 10.0 mi SSW 12.7 mph - N/A   Clear
8:55 AM 51.6 °F - 32.4 °F 48% 29.95 in 10.0 mi SSW 12.7 mph - N/A   Clear
9:15 AM 53.1 °F - 32.2 °F 45% 29.95 in 10.0 mi SSW 12.7 mph - N/A   Clear
9:35 AM 54.5 °F - 32.4 °F 43% 29.95 in 10.0 mi SW 11.5 mph - N/A   Clear
9:55 AM 56.8 °F - 32.2 °F 39% 29.95 in 10.0 mi SSW 12.7 mph - N/A   Clear
10:15 AM 59.5 °F - 32.4 °F 36% 29.95 in 10.0 mi SW 15.0 mph - N/A   Clear
10:35 AM 61.7 °F - 32.0 °F 33% 29.95 in 10.0 mi SW 11.5 mph - N/A   Clear
10:55 AM 62.6 °F - 31.8 °F 32% 29.95 in 10.0 mi SSW 10.4 mph 19.6 mph N/A   Clear
11:15 AM 63.7 °F - 31.6 °F 30% 29.94 in 10.0 mi SSW 15.0 mph - N/A   Clear
11:35 AM 65.1 °F - 31.6 °F 29% 29.94 in 10.0 mi SSW 13.8 mph 20.7 mph N/A   Clear
11:55 AM 66.2 °F - 31.1 °F 27% 29.93 in 10.0 mi SW 15.0 mph 19.6 mph N/A   Clear
12:15 PM 67.1 °F - 31.5 °F 27% 29.93 in 10.0 mi SW 15.0 mph 20.7 mph N/A   Clear
12:35 PM 67.3 °F - 32.0 °F 27% 29.92 in 10.0 mi SSW 17.3 mph - N/A   Clear
12:55 PM 67.1 °F - 31.8 °F 27% 29.92 in 10.0 mi SSW 18.4 mph - N/A   Clear
1:15 PM 67.6 °F - 31.3 °F 26% 29.91 in 10.0 mi SSW 16.1 mph - N/A   Clear
1:35 PM 68.2 °F - 31.6 °F 26% 29.90 in 10.0 mi SW 18.4 mph 24.2 mph N/A   Clear
1:55 PM 68.9 °F - 32.5 °F 26% 29.88 in 10.0 mi SSW 20.7 mph 24.2 mph N/A   Clear
2:15 PM 69.3 °F - 32.4 °F 26% 29.87 in 10.0 mi SSW 18.4 mph 24.2 mph N/A   Clear
2:35 PM 69.6 °F - 32.7 °F 26% 29.86 in 10.0 mi SSW 17.3 mph 25.3 mph N/A   Clear
2:55 PM 70.2 °F - 32.2 °F 25% 29.85 in 10.0 mi SSW 15.0 mph 25.3 mph N/A   Clear
3:15 PM 70.7 °F - 33.1 °F 25% 29.84 in 10.0 mi SSW 16.1 mph 23.0 mph N/A   Clear
3:35 PM 70.3 °F - 32.4 °F 25% 29.83 in 10.0 mi South 18.4 mph 27.6 mph N/A   Clear
3:55 PM 69.6 °F - 32.5 °F 25% 29.83 in 10.0 mi South 24.2 mph 28.8 mph N/A   Clear
4:15 PM 69.1 °F - 32.5 °F 26% 29.83 in 10.0 mi SSW 18.4 mph 28.8 mph N/A   Clear
4:35 PM 67.5 °F - 30.7 °F 25% 29.82 in 10.0 mi SSW 23.0 mph 31.1 mph N/A   Clear
4:55 PM 68.4 °F - 32.0 °F 26% 29.82 in 10.0 mi South 23.0 mph 28.8 mph N/A   Clear
5:15 PM 67.5 °F - 32.0 °F 27% 29.82 in 10.0 mi SSW 19.6 mph 28.8 mph N/A   Clear
5:35 PM 66.7 °F - 32.9 °F 28% 29.82 in 10.0 mi SSW 17.3 mph 28.8 mph N/A   Clear
5:55 PM 65.7 °F - 32.5 °F 29% 29.82 in 10.0 mi SSW 21.9 mph 29.9 mph N/A   Clear
6:15 PM 64.8 °F - 33.4 °F 31% 29.82 in 10.0 mi South 17.3 mph - N/A   Clear
6:35 PM 63.7 °F - 34.0 °F 33% 29.83 in 10.0 mi SSW 15.0 mph - N/A   Clear
6:55 PM 61.9 °F - 34.5 °F 36% 29.83 in 10.0 mi SSW 12.7 mph 18.4 mph N/A   Clear
7:15 PM 61.7 °F - 34.7 °F 36% 29.82 in 10.0 mi South 13.8 mph - N/A   Clear
7:35 PM 60.4 °F - 34.0 °F 37% 29.81 in 10.0 mi South 15.0 mph - N/A   Clear
7:55 PM 58.5 °F - 35.6 °F 42% 29.81 in 10.0 mi South 12.7 mph - N/A   Clear
8:15 PM 57.4 °F - 36.7 °F 46% 29.81 in 10.0 mi SSW 10.4 mph - N/A   Clear
8:35 PM 58.3 °F - 36.9 °F 45% 29.82 in 10.0 mi SSW 13.8 mph - N/A   Clear
8:55 PM 58.1 °F - 37.6 °F 46% 29.82 in 10.0 mi SSW 15.0 mph 19.6 mph N/A   Clear
9:15 PM 57.4 °F - 38.3 °F 49% 29.83 in 10.0 mi SSW 10.4 mph - N/A   Clear
9:35 PM 56.1 °F - 38.8 °F 52% 29.84 in 10.0 mi SW 11.5 mph - N/A   Clear
9:55 PM 56.3 °F - 38.8 °F 52% 29.86 in 10.0 mi WSW 8.1 mph - N/A   Clear
10:15 PM 58.3 °F - 38.7 °F 48% 29.87 in 10.0 mi West 9.2 mph 17.3 mph N/A   Clear
10:35 PM 58.6 °F - 38.8 °F 48% 29.89 in 10.0 mi West 10.4 mph 17.3 mph N/A   Clear
10:55 PM 57.2 °F - 39.0 °F 51% 29.91 in 10.0 mi WNW 12.7 mph - N/A   Clear
11:15 PM 54.9 °F - 35.1 °F 47% 29.93 in 10.0 mi NNW 12.7 mph 23.0 mph N/A   Clear
11:35 PM 53.6 °F - 34.9 °F 49% 29.94 in 10.0 mi NNW 10.4 mph 16.1 mph N/A   Clear
11:55 PM 52.5 °F - 34.7 °F 51% 29.94 in 10.0 mi NNW 9.2 mph - N/A   Clear